sensor_id;sensor_type;location;lat;lon;timestamp;P1;durP1;ratioP1;P2;durP2;ratioP2
19940;SDS011;10132;50.864;5.176;2024-01-30T00:00:52;1999.90;;;999.90;;
19940;SDS011;10132;50.864;5.176;2024-01-30T00:02:53;1999.90;;;999.90;;
19940;SDS011;10132;50.864;5.176;2024-01-30T00:04:55;1999.90;;;999.90;;
19940;SDS011;10132;50.864;5.176;2024-01-30T00:06:58;1999.90;;;999.90;;
19940;SDS011;10132;50.864;5.176;2024-01-30T00:09:00;1999.90;;;999.90;;
19940;SDS011;10132;50.864;5.176;2024-01-30T00:11:02;1999.90;;;999.90;;
19940;SDS011;10132;50.864;5.176;2024-01-30T00:13:05;1999.90;;;999.90;;
19940;SDS011;10132;50.864;5.176;2024-01-30T00:15:06;1999.90;;;999.90;;
19940;SDS011;10132;50.864;5.176;2024-01-30T00:17:09;1999.90;;;999.90;;
19940;SDS011;10132;50.864;5.176;2024-01-30T00:19:12;1999.90;;;999.90;;
19940;SDS011;10132;50.864;5.176;2024-01-30T00:21:14;1999.90;;;999.90;;
19940;SDS011;10132;50.864;5.176;2024-01-30T00:23:16;1999.90;;;999.90;;
19940;SDS011;10132;50.864;5.176;2024-01-30T00:25:18;1999.90;;;999.90;;
19940;SDS011;10132;50.864;5.176;2024-01-30T00:27:21;1999.90;;;999.90;;
19940;SDS011;10132;50.864;5.176;2024-01-30T00:29:23;1999.90;;;999.90;;
19940;SDS011;10132;50.864;5.176;2024-01-30T00:31:29;1999.90;;;999.90;;
19940;SDS011;10132;50.864;5.176;2024-01-30T00:33:31;1999.90;;;999.90;;
19940;SDS011;10132;50.864;5.176;2024-01-30T00:35:34;1999.90;;;999.90;;
19940;SDS011;10132;50.864;5.176;2024-01-30T00:37:36;1999.90;;;999.90;;
19940;SDS011;10132;50.864;5.176;2024-01-30T00:39:38;1999.90;;;999.90;;
19940;SDS011;10132;50.864;5.176;2024-01-30T00:41:40;1999.90;;;999.90;;
19940;SDS011;10132;50.864;5.176;2024-01-30T00:43:44;1999.90;;;999.90;;
19940;SDS011;10132;50.864;5.176;2024-01-30T00:45:45;1999.90;;;999.90;;
19940;SDS011;10132;50.864;5.176;2024-01-30T00:47:47;1999.90;;;999.90;;
19940;SDS011;10132;50.864;5.176;2024-01-30T00:49:49;1999.90;;;999.90;;
19940;SDS011;10132;50.864;5.176;2024-01-30T00:51:51;1999.90;;;999.90;;
19940;SDS011;10132;50.864;5.176;2024-01-30T00:53:53;1999.90;;;999.90;;
19940;SDS011;10132;50.864;5.176;2024-01-30T00:55:55;1999.90;;;999.90;;
19940;SDS011;10132;50.864;5.176;2024-01-30T00:57:58;1999.90;;;999.90;;
19940;SDS011;10132;50.864;5.176;2024-01-30T01:00:01;1999.90;;;999.90;;
19940;SDS011;10132;50.864;5.176;2024-01-30T01:02:06;1999.90;;;999.90;;
19940;SDS011;10132;50.864;5.176;2024-01-30T01:04:08;1999.90;;;999.90;;
19940;SDS011;10132;50.864;5.176;2024-01-30T01:06:10;1999.90;;;999.90;;
19940;SDS011;10132;50.864;5.176;2024-01-30T01:08:12;1999.90;;;999.90;;
19940;SDS011;10132;50.864;5.176;2024-01-30T01:10:16;1999.90;;;999.90;;
19940;SDS011;10132;50.864;5.176;2024-01-30T01:12:18;1999.90;;;999.90;;
19940;SDS011;10132;50.864;5.176;2024-01-30T01:14:20;1999.90;;;999.90;;
19940;SDS011;10132;50.864;5.176;2024-01-30T01:16:24;1999.90;;;999.90;;
19940;SDS011;10132;50.864;5.176;2024-01-30T01:18:26;1999.90;;;999.90;;
19940;SDS011;10132;50.864;5.176;2024-01-30T01:20:27;1999.90;;;999.90;;
19940;SDS011;10132;50.864;5.176;2024-01-30T01:22:29;1999.90;;;999.90;;
19940;SDS011;10132;50.864;5.176;2024-01-30T01:24:32;1999.90;;;999.90;;
19940;SDS011;10132;50.864;5.176;2024-01-30T01:26:34;1999.90;;;999.90;;
19940;SDS011;10132;50.864;5.176;2024-01-30T01:28:36;1999.90;;;999.90;;
19940;SDS011;10132;50.864;5.176;2024-01-30T01:30:40;1999.90;;;999.90;;
19940;SDS011;10132;50.864;5.176;2024-01-30T01:32:44;1999.90;;;999.90;;
19940;SDS011;10132;50.864;5.176;2024-01-30T01:34:51;1999.90;;;999.90;;
19940;SDS011;10132;50.864;5.176;2024-01-30T01:36:53;1999.90;;;999.90;;
19940;SDS011;10132;50.864;5.176;2024-01-30T01:38:55;1999.90;;;999.90;;
19940;SDS011;10132;50.864;5.176;2024-01-30T01:40:57;1999.90;;;999.90;;
19940;SDS011;10132;50.864;5.176;2024-01-30T01:43:02;1999.90;;;999.90;;
19940;SDS011;10132;50.864;5.176;2024-01-30T01:45:05;1999.90;;;999.90;;
19940;SDS011;10132;50.864;5.176;2024-01-30T01:47:08;1999.90;;;999.90;;
19940;SDS011;10132;50.864;5.176;2024-01-30T01:49:11;1999.90;;;999.90;;
19940;SDS011;10132;50.864;5.176;2024-01-30T01:51:15;1999.90;;;999.90;;
19940;SDS011;10132;50.864;5.176;2024-01-30T01:53:17;1999.90;;;999.90;;
19940;SDS011;10132;50.864;5.176;2024-01-30T01:55:20;1999.90;;;999.90;;
19940;SDS011;10132;50.864;5.176;2024-01-30T01:57:25;1999.90;;;999.90;;
19940;SDS011;10132;50.864;5.176;2024-01-30T01:59:27;1999.90;;;999.90;;
19940;SDS011;10132;50.864;5.176;2024-01-30T02:01:29;1999.90;;;999.90;;
19940;SDS011;10132;50.864;5.176;2024-01-30T02:03:33;1999.90;;;999.90;;
19940;SDS011;10132;50.864;5.176;2024-01-30T02:05:37;1999.90;;;999.90;;
19940;SDS011;10132;50.864;5.176;2024-01-30T02:07:39;1999.90;;;999.90;;
19940;SDS011;10132;50.864;5.176;2024-01-30T02:09:42;1999.90;;;999.90;;
19940;SDS011;10132;50.864;5.176;2024-01-30T02:11:44;1999.90;;;999.90;;
19940;SDS011;10132;50.864;5.176;2024-01-30T02:13:45;1999.90;;;999.90;;
19940;SDS011;10132;50.864;5.176;2024-01-30T02:15:48;1999.90;;;999.90;;
19940;SDS011;10132;50.864;5.176;2024-01-30T02:17:51;1999.90;;;999.90;;
19940;SDS011;10132;50.864;5.176;2024-01-30T02:19:53;1999.90;;;999.90;;
19940;SDS011;10132;50.864;5.176;2024-01-30T02:21:57;1999.90;;;999.90;;
19940;SDS011;10132;50.864;5.176;2024-01-30T02:23:59;1999.90;;;999.90;;
19940;SDS011;10132;50.864;5.176;2024-01-30T02:26:02;1999.90;;;999.90;;
19940;SDS011;10132;50.864;5.176;2024-01-30T02:28:04;1999.90;;;999.90;;
19940;SDS011;10132;50.864;5.176;2024-01-30T02:30:06;1999.90;;;999.90;;
19940;SDS011;10132;50.864;5.176;2024-01-30T02:32:09;1999.90;;;999.90;;
19940;SDS011;10132;50.864;5.176;2024-01-30T02:34:09;1999.90;;;999.90;;
19940;SDS011;10132;50.864;5.176;2024-01-30T02:36:11;1999.90;;;999.90;;
19940;SDS011;10132;50.864;5.176;2024-01-30T02:38:14;1999.90;;;999.90;;
19940;SDS011;10132;50.864;5.176;2024-01-30T02:40:17;1999.90;;;999.90;;
19940;SDS011;10132;50.864;5.176;2024-01-30T02:42:19;1999.90;;;999.90;;
19940;SDS011;10132;50.864;5.176;2024-01-30T02:44:20;1999.90;;;999.90;;
19940;SDS011;10132;50.864;5.176;2024-01-30T02:46:22;1999.90;;;999.90;;
19940;SDS011;10132;50.864;5.176;2024-01-30T02:48:24;1999.90;;;999.90;;
19940;SDS011;10132;50.864;5.176;2024-01-30T02:50:26;1999.90;;;999.90;;
19940;SDS011;10132;50.864;5.176;2024-01-30T02:52:28;1999.90;;;999.90;;
19940;SDS011;10132;50.864;5.176;2024-01-30T02:54:31;1999.90;;;999.90;;
19940;SDS011;10132;50.864;5.176;2024-01-30T02:56:33;1999.90;;;999.90;;
19940;SDS011;10132;50.864;5.176;2024-01-30T02:58:35;1999.90;;;999.90;;
19940;SDS011;10132;50.864;5.176;2024-01-30T03:00:37;1999.90;;;999.90;;
19940;SDS011;10132;50.864;5.176;2024-01-30T03:02:39;1999.90;;;999.90;;
19940;SDS011;10132;50.864;5.176;2024-01-30T03:04:42;1999.90;;;999.90;;
19940;SDS011;10132;50.864;5.176;2024-01-30T03:06:44;1999.90;;;999.90;;
19940;SDS011;10132;50.864;5.176;2024-01-30T03:08:47;1999.90;;;999.90;;
19940;SDS011;10132;50.864;5.176;2024-01-30T03:10:51;1999.90;;;999.90;;
19940;SDS011;10132;50.864;5.176;2024-01-30T03:12:52;1999.90;;;999.90;;
19940;SDS011;10132;50.864;5.176;2024-01-30T03:14:54;1999.90;;;999.90;;
19940;SDS011;10132;50.864;5.176;2024-01-30T03:16:55;1999.90;;;999.90;;
19940;SDS011;10132;50.864;5.176;2024-01-30T03:18:57;1999.90;;;999.90;;
19940;SDS011;10132;50.864;5.176;2024-01-30T03:20:58;1999.90;;;999.90;;
19940;SDS011;10132;50.864;5.176;2024-01-30T03:23:01;1999.90;;;999.90;;
19940;SDS011;10132;50.864;5.176;2024-01-30T03:25:03;1999.90;;;999.90;;
19940;SDS011;10132;50.864;5.176;2024-01-30T03:27:07;1999.90;;;999.90;;
19940;SDS011;10132;50.864;5.176;2024-01-30T03:29:09;1999.90;;;999.90;;
19940;SDS011;10132;50.864;5.176;2024-01-30T03:31:13;1999.90;;;999.90;;
19940;SDS011;10132;50.864;5.176;2024-01-30T03:33:17;1999.90;;;999.90;;
19940;SDS011;10132;50.864;5.176;2024-01-30T03:35:19;1999.90;;;999.90;;
19940;SDS011;10132;50.864;5.176;2024-01-30T03:37:21;1999.90;;;999.90;;
19940;SDS011;10132;50.864;5.176;2024-01-30T03:39:23;1999.90;;;999.90;;
19940;SDS011;10132;50.864;5.176;2024-01-30T03:41:25;1999.90;;;999.90;;
19940;SDS011;10132;50.864;5.176;2024-01-30T03:43:27;1999.90;;;999.90;;
19940;SDS011;10132;50.864;5.176;2024-01-30T03:45:29;1999.90;;;999.90;;
19940;SDS011;10132;50.864;5.176;2024-01-30T03:47:31;1999.90;;;999.90;;
19940;SDS011;10132;50.864;5.176;2024-01-30T03:49:32;1999.90;;;999.90;;
19940;SDS011;10132;50.864;5.176;2024-01-30T03:51:34;1999.90;;;999.90;;
19940;SDS011;10132;50.864;5.176;2024-01-30T03:53:36;1999.90;;;999.90;;
19940;SDS011;10132;50.864;5.176;2024-01-30T03:55:38;1999.90;;;999.90;;
19940;SDS011;10132;50.864;5.176;2024-01-30T03:57:40;1999.90;;;999.90;;
19940;SDS011;10132;50.864;5.176;2024-01-30T03:59:43;1999.90;;;999.90;;
19940;SDS011;10132;50.864;5.176;2024-01-30T04:01:46;1999.90;;;999.90;;
19940;SDS011;10132;50.864;5.176;2024-01-30T04:03:48;1999.90;;;999.90;;
19940;SDS011;10132;50.864;5.176;2024-01-30T04:05:51;1999.90;;;999.90;;
19940;SDS011;10132;50.864;5.176;2024-01-30T04:07:53;1999.90;;;999.90;;
19940;SDS011;10132;50.864;5.176;2024-01-30T04:09:55;1999.90;;;999.90;;
19940;SDS011;10132;50.864;5.176;2024-01-30T04:11:57;1999.90;;;999.90;;
19940;SDS011;10132;50.864;5.176;2024-01-30T04:13:59;1999.90;;;999.90;;
19940;SDS011;10132;50.864;5.176;2024-01-30T04:16:03;1999.90;;;999.90;;
19940;SDS011;10132;50.864;5.176;2024-01-30T04:18:05;1999.90;;;999.90;;
19940;SDS011;10132;50.864;5.176;2024-01-30T04:20:08;1999.90;;;999.90;;
19940;SDS011;10132;50.864;5.176;2024-01-30T04:22:14;1999.90;;;999.90;;
19940;SDS011;10132;50.864;5.176;2024-01-30T04:24:16;1999.90;;;999.90;;
19940;SDS011;10132;50.864;5.176;2024-01-30T04:26:18;1999.90;;;999.90;;
19940;SDS011;10132;50.864;5.176;2024-01-30T04:28:20;1999.90;;;999.90;;
19940;SDS011;10132;50.864;5.176;2024-01-30T04:30:22;1999.90;;;999.90;;
19940;SDS011;10132;50.864;5.176;2024-01-30T04:32:26;1999.90;;;999.90;;
19940;SDS011;10132;50.864;5.176;2024-01-30T04:34:28;1999.90;;;999.90;;
19940;SDS011;10132;50.864;5.176;2024-01-30T04:36:30;1999.90;;;999.90;;
19940;SDS011;10132;50.864;5.176;2024-01-30T04:38:32;1999.90;;;999.90;;
19940;SDS011;10132;50.864;5.176;2024-01-30T04:40:34;1999.90;;;999.90;;
19940;SDS011;10132;50.864;5.176;2024-01-30T04:42:36;1999.90;;;999.90;;
19940;SDS011;10132;50.864;5.176;2024-01-30T04:44:38;1999.90;;;999.90;;
19940;SDS011;10132;50.864;5.176;2024-01-30T04:46:40;1999.90;;;999.90;;
19940;SDS011;10132;50.864;5.176;2024-01-30T04:48:44;1999.90;;;999.90;;
19940;SDS011;10132;50.864;5.176;2024-01-30T04:50:46;1999.90;;;999.90;;
19940;SDS011;10132;50.864;5.176;2024-01-30T04:52:48;1999.90;;;999.90;;
19940;SDS011;10132;50.864;5.176;2024-01-30T04:54:50;1999.90;;;999.90;;
19940;SDS011;10132;50.864;5.176;2024-01-30T04:56:52;1999.90;;;999.90;;
19940;SDS011;10132;50.864;5.176;2024-01-30T04:58:54;1999.90;;;999.90;;
19940;SDS011;10132;50.864;5.176;2024-01-30T05:00:56;1999.90;;;999.90;;
19940;SDS011;10132;50.864;5.176;2024-01-30T05:02:58;1999.90;;;999.90;;
19940;SDS011;10132;50.864;5.176;2024-01-30T05:05:02;1999.90;;;999.90;;
19940;SDS011;10132;50.864;5.176;2024-01-30T05:07:04;1999.90;;;999.90;;
19940;SDS011;10132;50.864;5.176;2024-01-30T05:09:05;1999.90;;;999.90;;
19940;SDS011;10132;50.864;5.176;2024-01-30T05:11:07;1999.90;;;999.90;;
19940;SDS011;10132;50.864;5.176;2024-01-30T05:13:11;1999.90;;;999.90;;
19940;SDS011;10132;50.864;5.176;2024-01-30T05:15:14;1999.90;;;999.90;;
19940;SDS011;10132;50.864;5.176;2024-01-30T05:17:16;1999.90;;;999.90;;
19940;SDS011;10132;50.864;5.176;2024-01-30T05:19:18;1999.90;;;999.90;;
19940;SDS011;10132;50.864;5.176;2024-01-30T05:21:23;1999.90;;;999.90;;
19940;SDS011;10132;50.864;5.176;2024-01-30T05:23:25;1999.90;;;999.90;;
19940;SDS011;10132;50.864;5.176;2024-01-30T05:25:27;1999.90;;;999.90;;
19940;SDS011;10132;50.864;5.176;2024-01-30T05:27:29;1999.90;;;999.90;;
19940;SDS011;10132;50.864;5.176;2024-01-30T05:29:30;1999.90;;;999.90;;
19940;SDS011;10132;50.864;5.176;2024-01-30T05:31:33;1999.90;;;999.90;;
19940;SDS011;10132;50.864;5.176;2024-01-30T05:33:34;1999.90;;;999.90;;
19940;SDS011;10132;50.864;5.176;2024-01-30T05:35:36;1999.90;;;999.90;;
19940;SDS011;10132;50.864;5.176;2024-01-30T05:37:39;1999.90;;;999.90;;
19940;SDS011;10132;50.864;5.176;2024-01-30T05:39:41;1999.90;;;999.90;;
19940;SDS011;10132;50.864;5.176;2024-01-30T05:41:43;1999.90;;;999.90;;
19940;SDS011;10132;50.864;5.176;2024-01-30T05:43:46;1999.90;;;999.90;;
19940;SDS011;10132;50.864;5.176;2024-01-30T05:45:48;1999.90;;;999.90;;
19940;SDS011;10132;50.864;5.176;2024-01-30T05:47:50;1999.90;;;999.90;;
19940;SDS011;10132;50.864;5.176;2024-01-30T05:49:51;1999.90;;;999.90;;
19940;SDS011;10132;50.864;5.176;2024-01-30T05:51:53;1999.90;;;999.90;;
19940;SDS011;10132;50.864;5.176;2024-01-30T05:53:56;1999.90;;;999.90;;
19940;SDS011;10132;50.864;5.176;2024-01-30T05:55:58;1999.90;;;999.90;;
19940;SDS011;10132;50.864;5.176;2024-01-30T05:58:00;1999.90;;;999.90;;
19940;SDS011;10132;50.864;5.176;2024-01-30T06:00:02;1999.90;;;999.90;;
19940;SDS011;10132;50.864;5.176;2024-01-30T06:02:05;1999.90;;;999.90;;
19940;SDS011;10132;50.864;5.176;2024-01-30T06:04:06;1999.90;;;999.90;;
19940;SDS011;10132;50.864;5.176;2024-01-30T06:06:08;1999.90;;;999.90;;
19940;SDS011;10132;50.864;5.176;2024-01-30T06:08:10;1999.90;;;999.90;;
19940;SDS011;10132;50.864;5.176;2024-01-30T06:10:12;1999.90;;;999.90;;
19940;SDS011;10132;50.864;5.176;2024-01-30T06:12:15;1999.90;;;999.90;;
19940;SDS011;10132;50.864;5.176;2024-01-30T06:14:17;1999.90;;;999.90;;
19940;SDS011;10132;50.864;5.176;2024-01-30T06:16:19;1999.90;;;999.90;;
19940;SDS011;10132;50.864;5.176;2024-01-30T06:18:21;1999.90;;;999.90;;
19940;SDS011;10132;50.864;5.176;2024-01-30T06:20:23;1999.90;;;999.90;;
19940;SDS011;10132;50.864;5.176;2024-01-30T06:22:25;1999.90;;;999.90;;
19940;SDS011;10132;50.864;5.176;2024-01-30T06:24:27;1999.90;;;999.90;;
19940;SDS011;10132;50.864;5.176;2024-01-30T06:26:31;1999.90;;;999.90;;
19940;SDS011;10132;50.864;5.176;2024-01-30T06:28:33;1999.90;;;999.90;;
19940;SDS011;10132;50.864;5.176;2024-01-30T06:30:35;1999.90;;;999.90;;
19940;SDS011;10132;50.864;5.176;2024-01-30T06:32:37;1999.90;;;999.90;;
19940;SDS011;10132;50.864;5.176;2024-01-30T06:34:40;1999.90;;;999.90;;
19940;SDS011;10132;50.864;5.176;2024-01-30T06:36:41;1999.90;;;999.90;;
19940;SDS011;10132;50.864;5.176;2024-01-30T06:38:43;1999.90;;;999.90;;
19940;SDS011;10132;50.864;5.176;2024-01-30T06:40:45;1999.90;;;999.90;;
19940;SDS011;10132;50.864;5.176;2024-01-30T06:42:48;1999.90;;;999.90;;
19940;SDS011;10132;50.864;5.176;2024-01-30T06:44:51;1999.90;;;999.90;;
19940;SDS011;10132;50.864;5.176;2024-01-30T06:46:53;1999.90;;;999.90;;
19940;SDS011;10132;50.864;5.176;2024-01-30T06:48:55;1999.90;;;999.90;;
19940;SDS011;10132;50.864;5.176;2024-01-30T06:50:57;1999.90;;;999.90;;
19940;SDS011;10132;50.864;5.176;2024-01-30T06:52:59;1999.90;;;999.90;;
19940;SDS011;10132;50.864;5.176;2024-01-30T06:55:01;1999.90;;;999.90;;
19940;SDS011;10132;50.864;5.176;2024-01-30T06:57:03;1999.90;;;999.90;;
19940;SDS011;10132;50.864;5.176;2024-01-30T06:59:10;1999.90;;;999.90;;
19940;SDS011;10132;50.864;5.176;2024-01-30T07:01:12;1999.90;;;999.90;;
19940;SDS011;10132;50.864;5.176;2024-01-30T07:03:14;1999.90;;;999.90;;
19940;SDS011;10132;50.864;5.176;2024-01-30T07:05:16;1999.90;;;999.90;;
19940;SDS011;10132;50.864;5.176;2024-01-30T07:07:18;1999.90;;;999.90;;
19940;SDS011;10132;50.864;5.176;2024-01-30T07:09:20;1999.90;;;999.90;;
19940;SDS011;10132;50.864;5.176;2024-01-30T07:11:23;1999.90;;;999.90;;
19940;SDS011;10132;50.864;5.176;2024-01-30T07:13:25;1999.90;;;999.90;;
19940;SDS011;10132;50.864;5.176;2024-01-30T07:15:29;1999.90;;;999.90;;
19940;SDS011;10132;50.864;5.176;2024-01-30T07:17:31;1999.90;;;999.90;;
19940;SDS011;10132;50.864;5.176;2024-01-30T07:19:33;1999.90;;;999.90;;
19940;SDS011;10132;50.864;5.176;2024-01-30T07:21:35;1999.90;;;999.90;;
19940;SDS011;10132;50.864;5.176;2024-01-30T07:23:38;1999.90;;;999.90;;
19940;SDS011;10132;50.864;5.176;2024-01-30T07:25:41;1999.90;;;999.90;;
19940;SDS011;10132;50.864;5.176;2024-01-30T07:27:43;1999.90;;;999.90;;
19940;SDS011;10132;50.864;5.176;2024-01-30T07:29:45;1999.90;;;999.90;;
19940;SDS011;10132;50.864;5.176;2024-01-30T07:31:48;1999.90;;;999.90;;
19940;SDS011;10132;50.864;5.176;2024-01-30T07:33:49;1999.90;;;999.90;;
19940;SDS011;10132;50.864;5.176;2024-01-30T07:35:51;1999.90;;;999.90;;
19940;SDS011;10132;50.864;5.176;2024-01-30T07:37:54;1999.90;;;999.90;;
19940;SDS011;10132;50.864;5.176;2024-01-30T07:39:57;1999.90;;;999.90;;
19940;SDS011;10132;50.864;5.176;2024-01-30T07:41:59;1999.90;;;999.90;;
19940;SDS011;10132;50.864;5.176;2024-01-30T07:44:00;1999.90;;;999.90;;
19940;SDS011;10132;50.864;5.176;2024-01-30T07:46:02;1999.90;;;999.90;;
19940;SDS011;10132;50.864;5.176;2024-01-30T07:48:06;1999.90;;;999.90;;
19940;SDS011;10132;50.864;5.176;2024-01-30T07:50:08;1999.90;;;999.90;;
19940;SDS011;10132;50.864;5.176;2024-01-30T07:52:10;1999.90;;;999.90;;
19940;SDS011;10132;50.864;5.176;2024-01-30T07:54:11;1999.90;;;999.90;;
19940;SDS011;10132;50.864;5.176;2024-01-30T07:56:14;1999.90;;;999.90;;
19940;SDS011;10132;50.864;5.176;2024-01-30T07:58:16;1999.90;;;999.90;;
19940;SDS011;10132;50.864;5.176;2024-01-30T08:00:18;1999.90;;;999.90;;
19940;SDS011;10132;50.864;5.176;2024-01-30T08:02:20;1999.90;;;999.90;;
19940;SDS011;10132;50.864;5.176;2024-01-30T08:04:24;1999.90;;;999.90;;
19940;SDS011;10132;50.864;5.176;2024-01-30T08:06:26;1999.90;;;999.90;;
19940;SDS011;10132;50.864;5.176;2024-01-30T08:08:28;1999.90;;;999.90;;
19940;SDS011;10132;50.864;5.176;2024-01-30T08:10:30;1999.90;;;999.90;;
19940;SDS011;10132;50.864;5.176;2024-01-30T08:12:32;1999.90;;;999.90;;
19940;SDS011;10132;50.864;5.176;2024-01-30T08:14:34;1999.90;;;999.90;;
19940;SDS011;10132;50.864;5.176;2024-01-30T08:16:36;1999.90;;;999.90;;
19940;SDS011;10132;50.864;5.176;2024-01-30T08:18:38;1999.90;;;999.90;;
19940;SDS011;10132;50.864;5.176;2024-01-30T08:20:42;1999.90;;;999.90;;
19940;SDS011;10132;50.864;5.176;2024-01-30T08:22:44;1999.90;;;999.90;;
19940;SDS011;10132;50.864;5.176;2024-01-30T08:24:46;1999.90;;;999.90;;
19940;SDS011;10132;50.864;5.176;2024-01-30T08:26:47;1999.90;;;999.90;;
19940;SDS011;10132;50.864;5.176;2024-01-30T08:28:49;1999.90;;;999.90;;
19940;SDS011;10132;50.864;5.176;2024-01-30T08:30:53;1999.90;;;999.90;;
19940;SDS011;10132;50.864;5.176;2024-01-30T08:32:55;1999.90;;;999.90;;
19940;SDS011;10132;50.864;5.176;2024-01-30T08:34:58;1999.90;;;999.90;;
19940;SDS011;10132;50.864;5.176;2024-01-30T08:37:05;1999.90;;;999.90;;
19940;SDS011;10132;50.864;5.176;2024-01-30T08:39:07;1999.90;;;999.90;;
19940;SDS011;10132;50.864;5.176;2024-01-30T08:41:09;1999.90;;;999.90;;
19940;SDS011;10132;50.864;5.176;2024-01-30T08:43:11;1999.90;;;999.90;;
19940;SDS011;10132;50.864;5.176;2024-01-30T08:45:13;1999.90;;;999.90;;
19940;SDS011;10132;50.864;5.176;2024-01-30T08:47:15;1999.90;;;999.90;;
19940;SDS011;10132;50.864;5.176;2024-01-30T08:49:17;1999.90;;;999.90;;
19940;SDS011;10132;50.864;5.176;2024-01-30T08:51:19;1999.90;;;999.90;;
19940;SDS011;10132;50.864;5.176;2024-01-30T08:53:22;1999.90;;;999.90;;
19940;SDS011;10132;50.864;5.176;2024-01-30T08:55:24;1999.90;;;999.90;;
19940;SDS011;10132;50.864;5.176;2024-01-30T08:57:26;1999.90;;;999.90;;
19940;SDS011;10132;50.864;5.176;2024-01-30T08:59:28;1999.90;;;999.90;;
19940;SDS011;10132;50.864;5.176;2024-01-30T09:01:30;1999.90;;;999.90;;
19940;SDS011;10132;50.864;5.176;2024-01-30T09:03:31;1999.90;;;999.90;;
19940;SDS011;10132;50.864;5.176;2024-01-30T09:05:34;1999.90;;;999.90;;
19940;SDS011;10132;50.864;5.176;2024-01-30T09:07:36;1999.90;;;999.90;;
19940;SDS011;10132;50.864;5.176;2024-01-30T09:09:39;1999.90;;;999.90;;
19940;SDS011;10132;50.864;5.176;2024-01-30T09:11:41;1999.90;;;999.90;;
19940;SDS011;10132;50.864;5.176;2024-01-30T09:13:43;1999.90;;;999.90;;
19940;SDS011;10132;50.864;5.176;2024-01-30T09:15:45;1999.90;;;999.90;;
19940;SDS011;10132;50.864;5.176;2024-01-30T09:17:47;1999.90;;;999.90;;
19940;SDS011;10132;50.864;5.176;2024-01-30T09:19:49;1999.90;;;999.90;;
19940;SDS011;10132;50.864;5.176;2024-01-30T09:21:50;1999.90;;;999.90;;
19940;SDS011;10132;50.864;5.176;2024-01-30T09:23:53;1999.90;;;999.90;;
19940;SDS011;10132;50.864;5.176;2024-01-30T09:25:57;1999.90;;;999.90;;
19940;SDS011;10132;50.864;5.176;2024-01-30T09:27:59;1999.90;;;999.90;;
19940;SDS011;10132;50.864;5.176;2024-01-30T09:30:02;1999.90;;;999.90;;
19940;SDS011;10132;50.864;5.176;2024-01-30T09:32:04;1999.90;;;999.90;;
19940;SDS011;10132;50.864;5.176;2024-01-30T09:34:09;1999.90;;;999.90;;
19940;SDS011;10132;50.864;5.176;2024-01-30T09:36:11;1999.90;;;999.90;;
19940;SDS011;10132;50.864;5.176;2024-01-30T09:38:15;1999.90;;;999.90;;
19940;SDS011;10132;50.864;5.176;2024-01-30T09:40:17;1999.90;;;999.90;;
19940;SDS011;10132;50.864;5.176;2024-01-30T09:42:24;1999.90;;;999.90;;
19940;SDS011;10132;50.864;5.176;2024-01-30T09:44:29;1999.90;;;999.90;;
19940;SDS011;10132;50.864;5.176;2024-01-30T09:46:32;1999.90;;;999.90;;
19940;SDS011;10132;50.864;5.176;2024-01-30T09:48:35;1999.90;;;999.90;;
19940;SDS011;10132;50.864;5.176;2024-01-30T09:50:38;1999.90;;;999.90;;
19940;SDS011;10132;50.864;5.176;2024-01-30T09:52:41;1999.90;;;999.90;;
19940;SDS011;10132;50.864;5.176;2024-01-30T09:54:44;1999.90;;;999.90;;
19940;SDS011;10132;50.864;5.176;2024-01-30T09:56:47;1999.90;;;999.90;;
19940;SDS011;10132;50.864;5.176;2024-01-30T09:58:50;1999.90;;;999.90;;
19940;SDS011;10132;50.864;5.176;2024-01-30T10:00:52;414.17;;;383.17;;
19940;SDS011;10132;50.864;5.176;2024-01-30T10:02:54;1498.13;;;817.10;;
19940;SDS011;10132;50.864;5.176;2024-01-30T10:04:56;1596.90;;;908.97;;
19940;SDS011;10132;50.864;5.176;2024-01-30T10:06:57;808.23;;;744.17;;
19940;SDS011;10132;50.864;5.176;2024-01-30T10:09:02;721.60;;;666.77;;
19940;SDS011;10132;50.864;5.176;2024-01-30T10:11:05;838.77;;;773.80;;
19940;SDS011;10132;50.864;5.176;2024-01-30T10:13:07;725.90;;;668.90;;
19940;SDS011;10132;50.864;5.176;2024-01-30T10:15:10;819.47;;;747.73;;
19940;SDS011;10132;50.864;5.176;2024-01-30T10:17:13;810.03;;;747.70;;
19940;SDS011;10132;50.864;5.176;2024-01-30T10:19:14;839.87;;;773.53;;
19940;SDS011;10132;50.864;5.176;2024-01-30T10:21:16;724.03;;;670.93;;
19940;SDS011;10132;50.864;5.176;2024-01-30T10:23:18;827.73;;;760.67;;
19940;SDS011;10132;50.864;5.176;2024-01-30T10:25:21;795.57;;;734.53;;
19940;SDS011;10132;50.864;5.176;2024-01-30T10:27:24;652.37;;;605.83;;
19940;SDS011;10132;50.864;5.176;2024-01-30T10:29:27;835.10;;;769.63;;
19940;SDS011;10132;50.864;5.176;2024-01-30T10:31:31;790.60;;;722.07;;
19940;SDS011;10132;50.864;5.176;2024-01-30T10:33:33;775.50;;;715.50;;
19940;SDS011;10132;50.864;5.176;2024-01-30T10:35:35;704.77;;;651.67;;
19940;SDS011;10132;50.864;5.176;2024-01-30T10:37:36;797.53;;;735.73;;
19940;SDS011;10132;50.864;5.176;2024-01-30T10:39:38;711.77;;;653.10;;
19940;SDS011;10132;50.864;5.176;2024-01-30T10:41:42;595.33;;;551.13;;
19940;SDS011;10132;50.864;5.176;2024-01-30T10:43:47;663.30;;;609.37;;
19940;SDS011;10132;50.864;5.176;2024-01-30T10:45:57;558.37;;;517.17;;
19940;SDS011;10132;50.864;5.176;2024-01-30T10:48:13;774.77;;;710.80;;
19940;SDS011;10132;50.864;5.176;2024-01-30T10:50:18;750.00;;;686.10;;
19940;SDS011;10132;50.864;5.176;2024-01-30T10:52:22;666.20;;;616.57;;
19940;SDS011;10132;50.864;5.176;2024-01-30T10:54:25;660.90;;;611.43;;
19940;SDS011;10132;50.864;5.176;2024-01-30T10:56:28;713.77;;;660.90;;
19940;SDS011;10132;50.864;5.176;2024-01-30T10:58:33;687.93;;;638.93;;
19940;SDS011;10132;50.864;5.176;2024-01-30T11:00:34;714.73;;;661.53;;
19940;SDS011;10132;50.864;5.176;2024-01-30T11:02:37;496.90;;;465.13;;
19940;SDS011;10132;50.864;5.176;2024-01-30T11:04:42;708.03;;;658.03;;
19940;SDS011;10132;50.864;5.176;2024-01-30T11:06:44;622.50;;;580.80;;
19940;SDS011;10132;50.864;5.176;2024-01-30T11:08:45;676.80;;;631.87;;
19940;SDS011;10132;50.864;5.176;2024-01-30T11:10:47;644.70;;;602.83;;
19940;SDS011;10132;50.864;5.176;2024-01-30T11:12:48;751.73;;;683.67;;
19940;SDS011;10132;50.864;5.176;2024-01-30T11:15:01;687.73;;;642.80;;
19940;SDS011;10132;50.864;5.176;2024-01-30T11:17:05;699.23;;;646.97;;
19940;SDS011;10132;50.864;5.176;2024-01-30T11:19:10;759.80;;;704.23;;
19940;SDS011;10132;50.864;5.176;2024-01-30T11:21:14;674.57;;;620.87;;
19940;SDS011;10132;50.864;5.176;2024-01-30T11:23:16;670.07;;;618.50;;
19940;SDS011;10132;50.864;5.176;2024-01-30T11:25:19;640.30;;;597.40;;
19940;SDS011;10132;50.864;5.176;2024-01-30T11:27:22;670.20;;;621.10;;